Fort Calhoun, Nebraska
Current Conditions -  °F | °C
As of 11:35 AM on Friday 24 Oct 2014 (Local Time) from KBTA Reporting Station
Clear Clear  
Wind Chill: 67°   Ceiling: Unl
Heat Index: 67°   Visibility: 10mi
Dew Point: 59°   Wind: 10mph
Humidity: 76%   Direction: 220°SW
Pressure: 29.93"   Gusts: NA
Location:  41.46°N, 96.03°W
Report Text: KBTA 241635Z AUTO 22009KT 10SM CLR 20/15 A2993 RMK AO2 T01950151
Loading
Personal Weather Stations






























Interactive Weather Map
Tropical Storm Tracking
New forecast layout! Learn more

10-Day Weather Forecast

Advertisements
Track Severe Weather on mobile